createdAt,value
2022-09-29T14:54:55.700Z,1.30
2022-09-29T14:55:56.481Z,1.20
2022-09-29T14:56:56.239Z,1.60
2022-09-29T14:57:56.070Z,1.40
2022-09-29T14:58:56.027Z,1.60
2022-09-29T14:59:56.973Z,1.10
2022-09-29T15:00:56.051Z,1.60
2022-09-29T15:01:55.997Z,1.40
2022-09-29T15:03:00.362Z,1.70
2022-09-29T15:03:56.072Z,1.60
2022-09-29T15:04:55.958Z,1.80
2022-09-29T15:05:56.152Z,1.60
2022-09-29T15:06:56.534Z,1.50
2022-09-29T15:09:11.385Z,1.80
2022-09-29T15:10:12.229Z,1.40
2022-09-29T15:11:12.407Z,1.30
2022-09-29T15:12:12.281Z,1.80
2022-09-29T15:13:12.170Z,1.40
2022-09-29T21:34:09.853Z,3.40
2022-09-29T21:35:11.009Z,3.00
2022-09-29T21:36:10.852Z,2.40
2022-09-29T21:37:10.687Z,2.50
2022-09-29T21:38:10.866Z,3.20
2022-09-29T21:39:10.697Z,3.80
2022-09-29T21:40:10.676Z,2.30
2022-09-29T21:41:10.716Z,3.20
2022-09-29T21:42:10.628Z,3.10
2022-09-29T21:43:10.642Z,2.30
2022-09-29T21:44:10.605Z,3.30
2022-09-29T21:45:10.621Z,3.00
2022-09-29T21:46:10.633Z,2.50
2022-09-29T21:47:10.591Z,2.00
2022-09-29T21:48:10.637Z,2.80
2022-09-29T21:49:10.569Z,2.70
2022-09-29T21:50:10.538Z,3.00
2022-09-29T21:51:11.407Z,3.00
2022-09-29T21:52:10.537Z,4.20
2022-09-29T21:53:10.540Z,3.20
2022-09-29T21:54:10.553Z,3.20
2022-09-29T21:55:10.530Z,3.10
2022-09-29T21:56:10.607Z,3.60
2022-09-29T21:57:10.501Z,2.90
2022-09-29T21:58:10.501Z,3.50
2022-09-29T21:59:10.488Z,2.70
2022-09-29T22:00:10.477Z,2.40
2022-09-29T22:01:11.476Z,3.50
2022-09-29T22:02:10.521Z,3.20
2022-09-29T22:03:10.425Z,2.90
2022-09-29T22:04:10.395Z,2.80
2022-09-29T22:05:10.415Z,3.00
2022-09-29T22:06:10.382Z,3.20
2022-09-29T22:07:40.057Z,3.10
2022-09-29T22:10:44.916Z,2.80
2022-09-29T22:31:53.350Z,2.30
2022-09-29T22:32:54.212Z,2.10
2022-09-29T23:05:47.089Z,2.40
2022-09-29T23:06:47.991Z,2.60
2022-09-29T23:07:47.802Z,2.10
2022-09-29T23:08:47.814Z,1.80
2022-09-29T23:11:12.128Z,1.60
2022-09-29T23:12:13.330Z,2.10
